Bashiqah Airport

IQ-0013 · Nineveh, Irak

METAR historie IQ-0013 · Bashiqah Airport

Hieronder zie je METAR's van de afgelopen dagen. Kies een jaar om door oudere METAR's te bladeren, vanaf het jaar 2007.

19 mei 2024

Tijd Code Weer Temp. Zicht Plafond Wind METAR/SPECI
03:30
V
15 °C 10 km+ - 200° 200° 3 kt METAR ORER 190030Z 20003KT 9999 VCTS FEW025CB SCT050 15/06 Q1012
03:00
V
16 °C 10 km+ - 200° 200° 3 kt METAR ORER 190000Z 20003KT 9999 SCT050 16/06 Q1012
02:00
V
16 °C 10 km+ - 290° 290° 3 kt METAR ORER 182300Z 29003KT 9999 FEW040 16/06 Q1012
01:00
V
16 °C 10 km+ - 360° 360° 0 kt METAR ORER 182200Z 00000KT 9999 FEW040 16/07 Q1013
00:00
V
16 °C 10 km+ - 360° 360° 0 kt METAR ORER 182100Z 00000KT CAVOK 16/06 Q1013

18 mei 2024

Tijd Code Weer Temp. Zicht Plafond Wind METAR/SPECI
23:00
V
18 °C 10 km+ - 350° 350° 5 kt METAR ORER 182000Z 35005KT CAVOK 18/06 Q1013
22:00
V
18 °C 10 km+ - 360° 360° 5 kt METAR ORER 181900Z 36005KT CAVOK 18/07 Q1013
21:00
V
19 °C 10 km+ - 330° 330° 4 kt METAR ORER 181800Z 33004KT CAVOK 19/08 Q1013
19:00
V
25 °C 9 km - 320° 320° 5 kt METAR ORER 181600Z 32005KT 9000 FEW040 25/07 Q1013
17:00
V
30 °C 10 km+ - 310° 310° 14 kt METAR ORER 181400Z 31014KT 9999 FEW035 SCT220 30/02 Q1013
15:00
V
31 °C 10 km+ - 300° 300° 14 kt METAR ORER 181200Z 30014KT 9999 FEW035 31/01 Q1013
14:00
V
30 °C 10 km+ - 310° 310° 13 kt METAR ORER 181100Z 31013KT 9999 FEW040 30/01 Q1015
13:00
V
29 °C 10 km+ - 300° 300° 10 kt METAR ORER 181000Z 30010KT 250V340 9999 FEW040 29/04 Q1015
11:00
V
27 °C 9 km - 240° 240° 7 kt METAR ORER 180800Z 24007KT 200V300 9000 NSC 27/05 Q1015
10:00
V
26 °C 9 km - 230° 230° 8 kt METAR ORER 180700Z 23008KT 9000 NSC 26/05 Q1015
09:00
V
25 °C 9 km - 220° 220° 6 kt METAR ORER 180600Z 22006KT 9000 NSC 25/05 Q1015
02:00
V
15 °C 10 km+ - 200° 200° 3 kt METAR ORER 172300Z 20003KT 9999 FEW040 15/03 Q1014
01:00
V
14 °C 10 km+ - 350° 350° 3 kt METAR ORER 172200Z 35003KT CAVOK 14/05 Q1014
00:00
V
14 °C 10 km+ - 320° 320° 4 kt METAR ORER 172100Z 32004KT CAVOK 14/05 Q1015

17 mei 2024

Tijd Code Weer Temp. Zicht Plafond Wind METAR/SPECI
23:00
V
15 °C 10 km+ - 300° 300° 3 kt METAR ORER 172000Z 30003KT CAVOK 15/03 Q1015
22:00
V
15 °C 10 km+ - Var Var 2 kt METAR ORER 171900Z VRB02KT CAVOK 15/05 Q1015
21:00
V
16 °C 10 km+ - Var Var 2 kt METAR ORER 171800Z VRB02KT CAVOK 16/02 Q1015
20:00
V
19 °C 10 km+ - 290° 290° 8 kt METAR ORER 171700Z 29008KT 9999 NSC 19/M00 Q1015
19:00
V
23 °C 10 km+ - 300° 300° 6 kt METAR ORER 171600Z 30006KT 9999 FEW035 23/M01 Q1014
17:00
V
28 °C 10 km+ - 310° 310° 10 kt METAR ORER 171400Z 31010KT 250V330 9999 FEW035 28/M02 Q1014
16:00
V
29 °C 10 km+ - 300° 300° 9 kt METAR ORER 171300Z 30009KT 260V340 9999 FEW035 29/M02 Q1014
15:00
V
29 °C 9 km - 310° 310° 8 - 19 kt METAR ORER 171200Z 31008G19KT 220V350 9000 FEW035 29/04 Q1014
14:00
V
29 °C 10 km+ - 310° 310° 9 kt METAR ORER 171100Z 31009KT 240V020 9999 FEW035 29/01 Q1015
13:00
V
29 °C 10 km+ - 300° 300° 13 - 23 kt METAR ORER 171000Z 30013G23KT 250V360 9999 FEW030 29/02 Q1015
12:00
V
28 °C 10 km+ - 270° 270° 12 kt METAR ORER 170900Z 27012KT 220V320 9999 FEW030 28/05 Q1015
11:00
V
27 °C 10 km+ - 260° 260° 11 kt METAR ORER 170800Z 26011KT 230V320 9999 FEW030 27/05 Q1016
10:00
V
27 °C 10 km+ - 230° 230° 7 kt METAR ORER 170700Z 23007KT 190V300 CAVOK 27/11 Q1015
09:00
V
25 °C 9 km - 160° 160° 3 kt METAR ORER 170600Z 16003KT 9000 NSC 25/09 Q1015
08:00
V
22 °C 9 km - Var Var 2 kt METAR ORER 170500Z VRB02KT 9000 NSC 22/10 Q1015
07:00
V
18 °C 9 km - Var Var 2 kt METAR ORER 170400Z VRB02KT 9000 NSC 18/12 Q1015
05:00
V
15 °C 10 km+ - 220° 220° 4 kt METAR ORER 170200Z 22004KT CAVOK 15/09 Q1014
04:00
V
13 °C 10 km+ - Var Var 0 kt METAR ORER 170100Z VRB00KT CAVOK 13/09 Q1014
03:00
V
14 °C 10 km+ - Var Var 2 kt METAR ORER 170000Z VRB02KT CAVOK 14/10 Q1014
02:00
V
14 °C 10 km+ - 300° 300° 4 kt METAR ORER 162300Z 30004KT CAVOK 14/10 Q1015
01:00
V
14 °C 9 km - Var Var 2 kt METAR ORER 162200Z VRB02KT 9000 NSC 14/10 Q1015
00:00
V
14 °C 9 km - Var Var 2 kt METAR ORER 162100Z VRB02KT 9000 NSC 14/10 Q1015

16 mei 2024

Tijd Code Weer Temp. Zicht Plafond Wind METAR/SPECI
23:00
V
16 °C 9 km - 270° 270° 4 kt METAR ORER 162000Z 27004KT 9000 NSC 16/10 Q1015
22:00
V
20 °C 9 km - 150° 150° 3 kt METAR ORER 161900Z 15003KT 9000 NSC 20/09 Q1015
20:00
V
25 °C 8 km - 080° 080° 4 kt METAR ORER 161700Z 08004KT 8000 SCT040 SCT100 25/08 Q1015
18:00
V
27 °C 8 km - 060° 060° 5 kt METAR ORER 161500Z 06005KT 8000 SCT035 27/09 Q1014
16:00
V
24 °C 8 km 3.500 ft 170° 170° 14 kt METAR ORER 161300Z 17014KT 8000 TS FEW020CB BKN035 24/10 Q1015
14:30
V
28 °C 8 km 3.500 ft 240° 240° 15 kt METAR ORER 161130Z 24015KT 8000 TS FEW020CB BKN035 28/07 Q1015
14:31
V
29 °C 9 km - 280° 280° 11 - 21 kt METAR ORER 161131Z 28011G21KT 230V320 9000 -TSRA NSC 29/06 Q1015
14:00
M
30 °C 8 km 3.000 ft 280° 280° 8 kt METAR ORER 161100Z 28008KT 8000 BKN030 30/06 Q1015
13:00
V
30 °C 8 km - 290° 290° 8 kt METAR ORER 161000Z 29008KT 8000 SCT035 30/06 Q1016
12:00
V
30 °C 8 km - 250° 250° 6 kt METAR ORER 160900Z 25006KT 8000 SCT040 30/05 Q1017
11:00
V
28 °C 8 km - 310° 310° 5 kt METAR ORER 160800Z 31005KT 8000 SCT040 28/06 Q1017
09:00
V
28 °C 8 km - 190° 190° 6 kt METAR ORER 160600Z 19006KT 8000 FEW040 SCT090 28/04 Q1017
Wijziging doorgeven